메인 페이지
METAR-TAF:

METAR-TAF

공항 :

그란카나리아 섬, 스페인

위도: 27-56N, 경도: 015-23W, 고도: 23m

현재 날씨관측

예보는 12분 전, 09:30시(UTC)에 발표되었습니다.
북동4kt풍과 풍을 오가는
온도 22°C
습도 65%
기압 1017 hPa
시정 10km 이상
고도 2000ft 상공 구름 조금

METAR: GCLP 210930Z 04004KT 350V080 9999 FEW020 22/15 Q1017 NOSIG

시각: 09:42 (09:42 UTC)

예보

예보는 1 시간 42분 전, 08:00시(UTC)에 발표되었습니다.
예보 대상 시간: 21일 09시부터 22일 09시까지 (UTC)
동북동6kt
시정 10km 이상
고도 3500ft 상공 구름 보통
확률 30% :
일시적
21일 12시부터 21일 18시까지 (UTC)
남남동10kt

TAF: GCLP 210800Z 2109/2209 07006KT 9999 SCT035 TX24/2114Z TN17/2207Z PROB30 TEMPO 2112/2118 15010KT

4,000개 이상의 공항 관측 자료 및 예보 (METAR 및 TAF 보고).

지도상에서 검색 가능한 기상관측소가 노란 점과 빨간 점으로 표시되어 있습니다.

기상관측소 명을 보려면 표시 위로 마우스를 이동하세요.

날씨 관측과 예보를 보려면 클릭하세요.

지도 변경 : 확대하려면 엑스 표시가 있는 녹색 버튼, 축소하려면 빼기 표시가 있는 녹색 버튼, 다음 페이지의 지도를 보려면 녹색 화살표를 클릭하세요.


METAR-TAF: